sensor_id;sensor_type;location;lat;lon;timestamp;pressure;altitude;pressure_sealevel;temperature;humidity
27840;BME280;15207;42.182;24.308;2022-09-09T00:00:27;99451.25;;;16.39;96.31
27840;BME280;15207;42.182;24.308;2022-09-09T00:05:38;99454.81;;;16.22;97.19
27840;BME280;15207;42.182;24.308;2022-09-09T00:08:15;99453.78;;;16.23;97.67
27840;BME280;15207;42.182;24.308;2022-09-09T00:10:43;99456.34;;;16.24;97.54
27840;BME280;15207;42.182;24.308;2022-09-09T00:13:48;99450.94;;;16.06;99.00
27840;BME280;15207;42.182;24.308;2022-09-09T00:16:20;99453.88;;;15.95;100.00
27840;BME280;15207;42.182;24.308;2022-09-09T00:24:27;99453.25;;;16.01;100.00
27840;BME280;15207;42.182;24.308;2022-09-09T00:27:00;99460.50;;;16.00;99.98
27840;BME280;15207;42.182;24.308;2022-09-09T00:32:04;99451.84;;;15.97;98.76
27840;BME280;15207;42.182;24.308;2022-09-09T00:34:32;99458.53;;;15.93;98.63
27840;BME280;15207;42.182;24.308;2022-09-09T00:36:58;99455.28;;;15.89;99.34
27840;BME280;15207;42.182;24.308;2022-09-09T00:39:36;99455.28;;;15.89;99.11
27840;BME280;15207;42.182;24.308;2022-09-09T00:42:16;99458.84;;;15.90;98.99
27840;BME280;15207;42.182;24.308;2022-09-09T00:47:51;99462.38;;;15.90;98.59
27840;BME280;15207;42.182;24.308;2022-09-09T00:56:23;99456.28;;;15.88;98.38
27840;BME280;15207;42.182;24.308;2022-09-09T00:59:06;99461.69;;;15.88;98.17
27840;BME280;15207;42.182;24.308;2022-09-09T01:01:37;99445.50;;;15.88;98.62
27840;BME280;15207;42.182;24.308;2022-09-09T01:04:19;99454.84;;;15.94;97.81
27840;BME280;15207;42.182;24.308;2022-09-09T01:06:55;99456.56;;;15.95;98.19
27840;BME280;15207;42.182;24.308;2022-09-09T01:09:32;99454.81;;;16.04;97.63
27840;BME280;15207;42.182;24.308;2022-09-09T01:12:16;99464.75;;;16.03;96.99
27840;BME280;15207;42.182;24.308;2022-09-09T01:14:47;99452.16;;;15.94;96.89
27840;BME280;15207;42.182;24.308;2022-09-09T01:17:22;99454.25;;;15.72;97.68
27840;BME280;15207;42.182;24.308;2022-09-09T01:25:18;99454.22;;;15.54;98.85
27840;BME280;15207;42.182;24.308;2022-09-09T01:27:46;99462.31;;;15.54;98.71
27840;BME280;15207;42.182;24.308;2022-09-09T01:30:16;99454.06;;;15.55;98.48
27840;BME280;15207;42.182;24.308;2022-09-09T01:32:48;99450.09;;;15.59;98.42
27840;BME280;15207;42.182;24.308;2022-09-09T01:38:08;99436.41;;;15.61;98.13
27840;BME280;15207;42.182;24.308;2022-09-09T01:40:34;99435.81;;;15.67;97.39
27840;BME280;15207;42.182;24.308;2022-09-09T01:43:00;99445.63;;;15.68;97.22
27840;BME280;15207;42.182;24.308;2022-09-09T01:45:26;99442.97;;;15.58;97.57
27840;BME280;15207;42.182;24.308;2022-09-09T01:47:52;99443.69;;;15.60;98.25
27840;BME280;15207;42.182;24.308;2022-09-09T01:50:19;99450.22;;;15.58;97.36
27840;BME280;15207;42.182;24.308;2022-09-09T01:52:50;99453.22;;;15.55;97.03
27840;BME280;15207;42.182;24.308;2022-09-09T01:55:17;99455.38;;;15.51;96.68
27840;BME280;15207;42.182;24.308;2022-09-09T02:00:24;99439.88;;;15.53;97.89
27840;BME280;15207;42.182;24.308;2022-09-09T02:03:10;99434.63;;;15.52;96.74
27840;BME280;15207;42.182;24.308;2022-09-09T02:05:41;99439.31;;;15.50;97.58
27840;BME280;15207;42.182;24.308;2022-09-09T02:08:24;99441.19;;;15.49;98.05
27840;BME280;15207;42.182;24.308;2022-09-09T02:11:07;99441.19;;;15.49;97.95
27840;BME280;15207;42.182;24.308;2022-09-09T02:13:35;99436.75;;;15.48;97.36
27840;BME280;15207;42.182;24.308;2022-09-09T02:16:22;99435.41;;;15.34;97.53
27840;BME280;15207;42.182;24.308;2022-09-09T02:19:09;99453.50;;;15.24;97.91
27840;BME280;15207;42.182;24.308;2022-09-09T02:21:38;99457.09;;;15.14;97.61
27840;BME280;15207;42.182;24.308;2022-09-09T02:24:06;99473.72;;;15.10;98.38
27840;BME280;15207;42.182;24.308;2022-09-09T02:26:39;99467.19;;;15.12;98.31
27840;BME280;15207;42.182;24.308;2022-09-09T02:29:18;99458.28;;;15.02;98.84
27840;BME280;15207;42.182;24.308;2022-09-09T02:31:46;99453.44;;;15.05;99.54
27840;BME280;15207;42.182;24.308;2022-09-09T02:34:13;99451.16;;;15.01;99.85
27840;BME280;15207;42.182;24.308;2022-09-09T02:36:42;99445.06;;;14.99;100.00
27840;BME280;15207;42.182;24.308;2022-09-09T02:39:11;99445.34;;;15.05;100.00
27840;BME280;15207;42.182;24.308;2022-09-09T02:41:40;99448.06;;;14.96;100.00
27840;BME280;15207;42.182;24.308;2022-09-09T02:44:13;99445.53;;;14.94;100.00
27840;BME280;15207;42.182;24.308;2022-09-09T02:52:30;99457.69;;;14.98;100.00
27840;BME280;15207;42.182;24.308;2022-09-09T02:55:04;99458.41;;;15.00;100.00
27840;BME280;15207;42.182;24.308;2022-09-09T02:57:33;99461.81;;;15.02;99.76
27840;BME280;15207;42.182;24.308;2022-09-09T03:00:00;99463.25;;;14.97;99.87
27840;BME280;15207;42.182;24.308;2022-09-09T03:02:26;99458.75;;;14.87;99.63
27840;BME280;15207;42.182;24.308;2022-09-09T03:04:52;99463.00;;;14.80;100.00
27840;BME280;15207;42.182;24.308;2022-09-09T03:07:18;99469.09;;;14.82;100.00
27840;BME280;15207;42.182;24.308;2022-09-09T03:09:44;99468.38;;;14.80;100.00
27840;BME280;15207;42.182;24.308;2022-09-09T03:12:11;99473.63;;;14.81;100.00
27840;BME280;15207;42.182;24.308;2022-09-09T03:14:37;99466.56;;;14.80;100.00
27840;BME280;15207;42.182;24.308;2022-09-09T03:17:04;99465.81;;;14.68;100.00
27840;BME280;15207;42.182;24.308;2022-09-09T03:19:30;99477.47;;;14.69;100.00
27840;BME280;15207;42.182;24.308;2022-09-09T03:21:57;99472.22;;;14.67;100.00
27840;BME280;15207;42.182;24.308;2022-09-09T03:24:23;99478.44;;;14.68;100.00
27840;BME280;15207;42.182;24.308;2022-09-09T03:26:49;99476.16;;;14.73;100.00
27840;BME280;15207;42.182;24.308;2022-09-09T03:29:16;99469.94;;;14.73;100.00
27840;BME280;15207;42.182;24.308;2022-09-09T03:31:43;99463.53;;;14.74;100.00
27840;BME280;15207;42.182;24.308;2022-09-09T03:34:09;99482.31;;;14.75;100.00
27840;BME280;15207;42.182;24.308;2022-09-09T03:36:35;99482.41;;;14.74;100.00
27840;BME280;15207;42.182;24.308;2022-09-09T03:39:01;99476.19;;;14.63;98.84
27840;BME280;15207;42.182;24.308;2022-09-09T03:41:28;99470.94;;;14.62;98.29
27840;BME280;15207;42.182;24.308;2022-09-09T03:43:54;99471.81;;;14.62;98.84
27840;BME280;15207;42.182;24.308;2022-09-09T03:46:21;99472.94;;;14.60;98.13
27840;BME280;15207;42.182;24.308;2022-09-09T03:48:47;99478.75;;;14.55;98.82
27840;BME280;15207;42.182;24.308;2022-09-09T03:51:13;99471.53;;;14.55;99.03
27840;BME280;15207;42.182;24.308;2022-09-09T03:53:39;99483.00;;;14.58;99.42
27840;BME280;15207;42.182;24.308;2022-09-09T03:56:05;99481.56;;;14.63;98.92
27840;BME280;15207;42.182;24.308;2022-09-09T03:58:33;99485.13;;;14.64;98.64
27840;BME280;15207;42.182;24.308;2022-09-09T04:03:24;99483.41;;;14.73;99.13
27840;BME280;15207;42.182;24.308;2022-09-09T04:05:54;99482.41;;;14.74;98.84
27840;BME280;15207;42.182;24.308;2022-09-09T04:08:20;99483.72;;;14.79;98.80
27840;BME280;15207;42.182;24.308;2022-09-09T04:10:49;99484.88;;;14.77;98.15
27840;BME280;15207;42.182;24.308;2022-09-09T04:13:16;99486.25;;;14.71;98.45
27840;BME280;15207;42.182;24.308;2022-09-09T04:15:44;99478.75;;;14.65;98.63
27840;BME280;15207;42.182;24.308;2022-09-09T04:18:10;99476.88;;;14.65;99.53
27840;BME280;15207;42.182;24.308;2022-09-09T04:20:37;99480.72;;;14.73;99.62
27840;BME280;15207;42.182;24.308;2022-09-09T04:23:03;99475.91;;;14.76;99.71
27840;BME280;15207;42.182;24.308;2022-09-09T04:25:28;99480.47;;;14.56;99.92
27840;BME280;15207;42.182;24.308;2022-09-09T04:27:55;99476.91;;;14.46;100.00
27840;BME280;15207;42.182;24.308;2022-09-09T04:30:23;99479.88;;;14.52;100.00
27840;BME280;15207;42.182;24.308;2022-09-09T04:32:49;99487.69;;;14.55;100.00
27840;BME280;15207;42.182;24.308;2022-09-09T04:35:15;99492.34;;;14.63;100.00
27840;BME280;15207;42.182;24.308;2022-09-09T04:37:41;99491.50;;;14.73;100.00
27840;BME280;15207;42.182;24.308;2022-09-09T04:40:07;99487.44;;;14.78;100.00
27840;BME280;15207;42.182;24.308;2022-09-09T04:42:38;99489.22;;;14.88;100.00
27840;BME280;15207;42.182;24.308;2022-09-09T04:45:05;99486.22;;;15.01;100.00
27840;BME280;15207;42.182;24.308;2022-09-09T04:47:32;99493.28;;;15.12;100.00
27840;BME280;15207;42.182;24.308;2022-09-09T04:49:57;99501.03;;;15.34;99.88
27840;BME280;15207;42.182;24.308;2022-09-09T04:52:23;99503.66;;;15.54;99.29
27840;BME280;15207;42.182;24.308;2022-09-09T04:54:48;99502.03;;;15.71;97.58
27840;BME280;15207;42.182;24.308;2022-09-09T04:57:14;99497.25;;;15.83;96.43
27840;BME280;15207;42.182;24.308;2022-09-09T04:59:40;99506.13;;;16.04;95.92
27840;BME280;15207;42.182;24.308;2022-09-09T05:02:06;99507.59;;;16.16;94.96
27840;BME280;15207;42.182;24.308;2022-09-09T05:04:31;99509.94;;;16.29;94.01
27840;BME280;15207;42.182;24.308;2022-09-09T05:06:58;99517.34;;;16.45;93.83
27840;BME280;15207;42.182;24.308;2022-09-09T05:09:24;99511.53;;;16.58;93.40
27840;BME280;15207;42.182;24.308;2022-09-09T05:11:49;99505.13;;;16.77;92.84
27840;BME280;15207;42.182;24.308;2022-09-09T05:14:15;99500.19;;;16.99;90.77
27840;BME280;15207;42.182;24.308;2022-09-09T05:16:41;99501.03;;;17.18;90.65
27840;BME280;15207;42.182;24.308;2022-09-09T05:19:09;99501.97;;;17.35;89.81
27840;BME280;15207;42.182;24.308;2022-09-09T05:21:35;99504.81;;;17.60;89.46
27840;BME280;15207;42.182;24.308;2022-09-09T05:24:01;99508.25;;;17.79;88.32
27840;BME280;15207;42.182;24.308;2022-09-09T05:26:27;99508.31;;;17.95;89.04
27840;BME280;15207;42.182;24.308;2022-09-09T05:28:54;99511.63;;;18.24;87.56
27840;BME280;15207;42.182;24.308;2022-09-09T05:31:20;99504.34;;;18.33;87.20
27840;BME280;15207;42.182;24.308;2022-09-09T05:33:46;99497.25;;;18.48;86.75
27840;BME280;15207;42.182;24.308;2022-09-09T05:36:18;99488.59;;;18.61;85.90
27840;BME280;15207;42.182;24.308;2022-09-09T05:38:44;99484.38;;;18.84;85.12
27840;BME280;15207;42.182;24.308;2022-09-09T05:41:11;99483.66;;;18.90;83.86
27840;BME280;15207;42.182;24.308;2022-09-09T05:43:38;99484.88;;;19.04;83.71
27840;BME280;15207;42.182;24.308;2022-09-09T05:46:07;99483.31;;;19.26;83.30
27840;BME280;15207;42.182;24.308;2022-09-09T05:48:35;99482.91;;;19.46;82.08
27840;BME280;15207;42.182;24.308;2022-09-09T05:51:01;99476.22;;;19.57;81.14
27840;BME280;15207;42.182;24.308;2022-09-09T05:53:28;99476.75;;;19.92;77.99
27840;BME280;15207;42.182;24.308;2022-09-09T05:56:02;99470.63;;;19.99;75.78
27840;BME280;15207;42.182;24.308;2022-09-09T05:58:35;99480.97;;;19.95;76.37
27840;BME280;15207;42.182;24.308;2022-09-09T06:01:12;99484.47;;;20.12;76.63
27840;BME280;15207;42.182;24.308;2022-09-09T06:03:40;99480.03;;;20.19;74.20
27840;BME280;15207;42.182;24.308;2022-09-09T06:06:17;99473.06;;;20.40;73.76
27840;BME280;15207;42.182;24.308;2022-09-09T06:08:46;99475.41;;;20.67;71.78
27840;BME280;15207;42.182;24.308;2022-09-09T06:11:17;99478.84;;;20.84;70.44
27840;BME280;15207;42.182;24.308;2022-09-09T06:13:43;99462.00;;;20.80;72.05
27840;BME280;15207;42.182;24.308;2022-09-09T06:16:13;99455.59;;;20.96;70.28
27840;BME280;15207;42.182;24.308;2022-09-09T06:18:40;99461.16;;;21.18;69.27
27840;BME280;15207;42.182;24.308;2022-09-09T06:21:16;99466.69;;;21.10;65.17
27840;BME280;15207;42.182;24.308;2022-09-09T06:23:42;99470.19;;;21.34;66.95
27840;BME280;15207;42.182;24.308;2022-09-09T06:28:53;99477.31;;;21.35;65.69
27840;BME280;15207;42.182;24.308;2022-09-09T06:31:21;99471.47;;;21.53;64.91
27840;BME280;15207;42.182;24.308;2022-09-09T06:33:48;99474.19;;;21.68;64.61
27840;BME280;15207;42.182;24.308;2022-09-09T06:36:22;99457.56;;;21.78;66.17
27840;BME280;15207;42.182;24.308;2022-09-09T06:38:49;99458.56;;;21.92;65.78
27840;BME280;15207;42.182;24.308;2022-09-09T06:41:16;99462.78;;;21.95;63.80
27840;BME280;15207;42.182;24.308;2022-09-09T06:43:43;99462.94;;;21.71;64.83
27840;BME280;15207;42.182;24.308;2022-09-09T06:46:12;99462.44;;;21.67;66.48
27840;BME280;15207;42.182;24.308;2022-09-09T06:48:39;99462.78;;;21.95;65.88
27840;BME280;15207;42.182;24.308;2022-09-09T06:51:20;99464.59;;;22.24;63.00
27840;BME280;15207;42.182;24.308;2022-09-09T06:53:54;99466.38;;;22.17;63.71
27840;BME280;15207;42.182;24.308;2022-09-09T06:56:25;99463.28;;;22.42;62.45
27840;BME280;15207;42.182;24.308;2022-09-09T06:58:54;99467.59;;;22.36;60.92
27840;BME280;15207;42.182;24.308;2022-09-09T07:01:24;99466.97;;;22.34;61.61
27840;BME280;15207;42.182;24.308;2022-09-09T07:03:52;99468.13;;;22.25;62.90
27840;BME280;15207;42.182;24.308;2022-09-09T07:06:19;99454.97;;;22.50;62.29
27840;BME280;15207;42.182;24.308;2022-09-09T07:08:50;99458.50;;;22.51;61.83
27840;BME280;15207;42.182;24.308;2022-09-09T07:11:16;99465.13;;;22.56;62.09
27840;BME280;15207;42.182;24.308;2022-09-09T07:13:42;99464.19;;;22.71;60.80
27840;BME280;15207;42.182;24.308;2022-09-09T07:16:10;99467.72;;;22.65;60.62
27840;BME280;15207;42.182;24.308;2022-09-09T07:18:36;99465.81;;;22.65;59.61
27840;BME280;15207;42.182;24.308;2022-09-09T07:21:03;99463.91;;;22.44;57.56
27840;BME280;15207;42.182;24.308;2022-09-09T07:23:29;99466.25;;;22.47;56.88
27840;BME280;15207;42.182;24.308;2022-09-09T07:25:59;99465.94;;;22.79;55.55
27840;BME280;15207;42.182;24.308;2022-09-09T07:28:25;99465.72;;;23.09;55.80
27840;BME280;15207;42.182;24.308;2022-09-09T07:30:58;99463.63;;;23.40;55.65
27840;BME280;15207;42.182;24.308;2022-09-09T07:33:24;99454.09;;;23.71;54.00
27840;BME280;15207;42.182;24.308;2022-09-09T07:35:51;99454.16;;;23.91;52.47
27840;BME280;15207;42.182;24.308;2022-09-09T07:38:17;99442.75;;;23.74;52.94
27840;BME280;15207;42.182;24.308;2022-09-09T07:40:44;99447.78;;;23.70;51.43
27840;BME280;15207;42.182;24.308;2022-09-09T07:43:09;99455.69;;;23.51;51.21
27840;BME280;15207;42.182;24.308;2022-09-09T07:45:35;99448.34;;;23.52;50.28
27840;BME280;15207;42.182;24.308;2022-09-09T07:48:02;99449.06;;;23.74;50.34
27840;BME280;15207;42.182;24.308;2022-09-09T07:50:28;99450.09;;;23.67;50.61
27840;BME280;15207;42.182;24.308;2022-09-09T07:52:54;99445.25;;;23.69;49.64
27840;BME280;15207;42.182;24.308;2022-09-09T07:55:21;99447.38;;;23.73;50.29
27840;BME280;15207;42.182;24.308;2022-09-09T07:57:46;99437.59;;;23.15;51.18
27840;BME280;15207;42.182;24.308;2022-09-09T08:00:13;99432.44;;;23.27;51.99
27840;BME280;15207;42.182;24.308;2022-09-09T08:02:40;99439.44;;;23.85;50.74
27840;BME280;15207;42.182;24.308;2022-09-09T08:05:06;99432.91;;;23.86;50.52
27840;BME280;15207;42.182;24.308;2022-09-09T08:07:32;99435.69;;;24.00;50.98
27840;BME280;15207;42.182;24.308;2022-09-09T08:09:58;99434.06;;;24.19;50.78
27840;BME280;15207;42.182;24.308;2022-09-09T08:12:24;99437.88;;;24.25;49.36
27840;BME280;15207;42.182;24.308;2022-09-09T08:14:49;99430.94;;;24.36;50.56
27840;BME280;15207;42.182;24.308;2022-09-09T08:17:17;99435.56;;;24.49;50.94
27840;BME280;15207;42.182;24.308;2022-09-09T08:19:42;99433.03;;;24.54;48.58
27840;BME280;15207;42.182;24.308;2022-09-09T08:22:08;99420.19;;;24.75;48.82
27840;BME280;15207;42.182;24.308;2022-09-09T08:24:34;99418.91;;;25.04;47.56
27840;BME280;15207;42.182;24.308;2022-09-09T08:26:59;99416.56;;;25.21;47.35
27840;BME280;15207;42.182;24.308;2022-09-09T08:29:25;99421.84;;;25.16;47.24
27840;BME280;15207;42.182;24.308;2022-09-09T08:31:53;99420.97;;;25.29;48.04
27840;BME280;15207;42.182;24.308;2022-09-09T08:34:22;99411.66;;;25.37;46.32
27840;BME280;15207;42.182;24.308;2022-09-09T08:36:49;99410.09;;;25.61;46.21
27840;BME280;15207;42.182;24.308;2022-09-09T08:39:18;99411.13;;;25.67;45.17
27840;BME280;15207;42.182;24.308;2022-09-09T08:52:00;99386.22;;;25.16;47.22
27840;BME280;15207;42.182;24.308;2022-09-09T08:54:31;99396.53;;;25.21;47.75
27840;BME280;15207;42.182;24.308;2022-09-09T08:56:58;99389.16;;;25.21;47.96
27840;BME280;15207;42.182;24.308;2022-09-09T08:59:24;99396.13;;;25.11;47.74
27840;BME280;15207;42.182;24.308;2022-09-09T09:02:08;99387.91;;;25.17;48.01
27840;BME280;15207;42.182;24.308;2022-09-09T09:04:50;99386.88;;;25.05;47.10
27840;BME280;15207;42.182;24.308;2022-09-09T09:07:44;99388.47;;;25.33;48.29
27840;BME280;15207;42.182;24.308;2022-09-09T09:10:43;99390.97;;;25.48;45.87
27840;BME280;15207;42.182;24.308;2022-09-09T09:13:13;99388.72;;;25.25;46.50
27840;BME280;15207;42.182;24.308;2022-09-09T09:15:41;99379.91;;;25.09;47.13
27840;BME280;15207;42.182;24.308;2022-09-09T09:18:08;99383.88;;;25.27;46.92
27840;BME280;15207;42.182;24.308;2022-09-09T09:20:58;99384.19;;;25.57;46.35
27840;BME280;15207;42.182;24.308;2022-09-09T09:23:40;99373.03;;;25.91;46.07
27840;BME280;15207;42.182;24.308;2022-09-09T09:26:09;99378.09;;;25.87;45.18
27840;BME280;15207;42.182;24.308;2022-09-09T09:28:36;99371.53;;;25.56;46.52
27840;BME280;15207;42.182;24.308;2022-09-09T09:31:07;99365.06;;;25.83;46.13
27840;BME280;15207;42.182;24.308;2022-09-09T09:36:07;99352.81;;;25.85;45.92
27840;BME280;15207;42.182;24.308;2022-09-09T09:38:35;99349.94;;;25.73;45.63
27840;BME280;15207;42.182;24.308;2022-09-09T09:41:01;99334.56;;;25.27;46.34
27840;BME280;15207;42.182;24.308;2022-09-09T09:43:29;99333.59;;;25.53;46.67
27840;BME280;15207;42.182;24.308;2022-09-09T09:45:56;99336.88;;;25.75;46.21
27840;BME280;15207;42.182;24.308;2022-09-09T09:48:26;99347.50;;;25.91;46.73
27840;BME280;15207;42.182;24.308;2022-09-09T09:51:08;99351.09;;;26.17;45.69
27840;BME280;15207;42.182;24.308;2022-09-09T09:53:37;99342.22;;;26.21;45.98
27840;BME280;15207;42.182;24.308;2022-09-09T09:56:07;99343.25;;;26.20;45.72
27840;BME280;15207;42.182;24.308;2022-09-09T10:01:24;99340.97;;;26.17;45.15
27840;BME280;15207;42.182;24.308;2022-09-09T10:03:54;99336.63;;;26.09;45.70
27840;BME280;15207;42.182;24.308;2022-09-09T10:06:37;99343.63;;;26.31;45.20
27840;BME280;15207;42.182;24.308;2022-09-09T10:09:26;99332.72;;;26.24;44.69
27840;BME280;15207;42.182;24.308;2022-09-09T10:22:35;99320.84;;;26.74;43.87
27840;BME280;15207;42.182;24.308;2022-09-09T10:28:16;99321.59;;;27.38;43.11
27840;BME280;15207;42.182;24.308;2022-09-09T10:31:15;99323.91;;;27.22;42.63
27840;BME280;15207;42.182;24.308;2022-09-09T10:33:56;99325.97;;;26.45;43.69
27840;BME280;15207;42.182;24.308;2022-09-09T10:36:26;99317.47;;;26.28;44.98
27840;BME280;15207;42.182;24.308;2022-09-09T10:55:22;99290.84;;;27.59;42.40
27840;BME280;15207;42.182;24.308;2022-09-09T10:57:53;99292.69;;;27.78;42.40
27840;BME280;15207;42.182;24.308;2022-09-09T11:00:41;99289.25;;;27.82;43.39
27840;BME280;15207;42.182;24.308;2022-09-09T11:03:20;99283.06;;;28.11;43.36
27840;BME280;15207;42.182;24.308;2022-09-09T11:05:55;99279.56;;;28.04;43.37
27840;BME280;15207;42.182;24.308;2022-09-09T11:08:28;99278.38;;;27.88;43.89
27840;BME280;15207;42.182;24.308;2022-09-09T11:11:04;99289.28;;;27.94;44.69
27840;BME280;15207;42.182;24.308;2022-09-09T11:13:54;99284.34;;;27.42;43.05
27840;BME280;15207;42.182;24.308;2022-09-09T11:16:46;99294.56;;;27.04;44.23
27840;BME280;15207;42.182;24.308;2022-09-09T11:19:31;99288.66;;;27.19;44.97
27840;BME280;15207;42.182;24.308;2022-09-09T11:42:22;99234.91;;;28.73;42.77
27840;BME280;15207;42.182;24.308;2022-09-09T11:44:51;99244.03;;;28.74;42.11
27840;BME280;15207;42.182;24.308;2022-09-09T11:47:27;99239.41;;;29.03;41.34
27840;BME280;15207;42.182;24.308;2022-09-09T11:52:49;99241.97;;;28.93;40.40
27840;BME280;15207;42.182;24.308;2022-09-09T11:55:34;99237.50;;;29.04;41.60
27840;BME280;15207;42.182;24.308;2022-09-09T12:00:38;99232.22;;;29.02;41.77
27840;BME280;15207;42.182;24.308;2022-09-09T12:03:05;99240.06;;;28.94;40.48
27840;BME280;15207;42.182;24.308;2022-09-09T12:05:40;99220.94;;;28.63;40.95
27840;BME280;15207;42.182;24.308;2022-09-09T12:08:15;99223.59;;;28.58;42.61
27840;BME280;15207;42.182;24.308;2022-09-09T12:10:54;99223.19;;;28.78;42.64
27840;BME280;15207;42.182;24.308;2022-09-09T12:13:23;99223.69;;;28.63;40.90
27840;BME280;15207;42.182;24.308;2022-09-09T12:15:49;99220.19;;;28.80;42.91
27840;BME280;15207;42.182;24.308;2022-09-09T12:18:22;99219.44;;;28.96;41.76
27840;BME280;15207;42.182;24.308;2022-09-09T12:20:54;99220.38;;;29.02;41.32
27840;BME280;15207;42.182;24.308;2022-09-09T12:29:23;99215.94;;;29.30;41.78
27840;BME280;15207;42.182;24.308;2022-09-09T12:36:55;99199.59;;;29.11;43.05
27840;BME280;15207;42.182;24.308;2022-09-09T12:39:33;99193.56;;;28.97;43.08
27840;BME280;15207;42.182;24.308;2022-09-09T12:42:01;99192.59;;;28.91;43.67
27840;BME280;15207;42.182;24.308;2022-09-09T12:44:29;99202.13;;;28.72;45.21
27840;BME280;15207;42.182;24.308;2022-09-09T12:46:59;99199.00;;;28.68;43.99
27840;BME280;15207;42.182;24.308;2022-09-09T12:49:38;99201.75;;;28.68;44.42
27840;BME280;15207;42.182;24.308;2022-09-09T12:52:08;99194.25;;;28.63;46.08
27840;BME280;15207;42.182;24.308;2022-09-09T12:54:44;99186.88;;;28.52;46.00
27840;BME280;15207;42.182;24.308;2022-09-09T12:57:12;99192.88;;;28.37;45.64
27840;BME280;15207;42.182;24.308;2022-09-09T12:59:41;99192.25;;;28.23;45.58
27840;BME280;15207;42.182;24.308;2022-09-09T13:02:26;99184.97;;;28.05;45.98
27840;BME280;15207;42.182;24.308;2022-09-09T13:04:53;99181.88;;;27.89;46.59
27840;BME280;15207;42.182;24.308;2022-09-09T13:07:21;99173.13;;;27.92;45.93
27840;BME280;15207;42.182;24.308;2022-09-09T13:09:48;99168.34;;;28.11;45.26
27840;BME280;15207;42.182;24.308;2022-09-09T13:12:23;99163.44;;;28.02;46.47
27840;BME280;15207;42.182;24.308;2022-09-09T13:14:51;99160.69;;;28.02;44.89
27840;BME280;15207;42.182;24.308;2022-09-09T13:17:21;99148.94;;;28.06;46.22
27840;BME280;15207;42.182;24.308;2022-09-09T13:19:47;99142.41;;;28.07;46.86
27840;BME280;15207;42.182;24.308;2022-09-09T13:22:33;99140.59;;;28.01;47.09
27840;BME280;15207;42.182;24.308;2022-09-09T13:25:23;99142.16;;;27.97;46.68
27840;BME280;15207;42.182;24.308;2022-09-09T13:30:27;99140.34;;;27.91;47.26
27840;BME280;15207;42.182;24.308;2022-09-09T13:33:29;99137.88;;;27.89;45.71
27840;BME280;15207;42.182;24.308;2022-09-09T13:35:59;99129.72;;;27.94;47.43
27840;BME280;15207;42.182;24.308;2022-09-09T13:38:28;99135.13;;;27.89;46.71
27840;BME280;15207;42.182;24.308;2022-09-09T13:40:59;99131.53;;;27.77;45.81
27840;BME280;15207;42.182;24.308;2022-09-09T13:43:34;99130.31;;;27.72;45.72
27840;BME280;15207;42.182;24.308;2022-09-09T13:46:03;99133.31;;;27.71;47.30
27840;BME280;15207;42.182;24.308;2022-09-09T13:48:29;99128.19;;;27.63;47.49
27840;BME280;15207;42.182;24.308;2022-09-09T13:51:02;99123.63;;;27.56;48.58
27840;BME280;15207;42.182;24.308;2022-09-09T13:53:30;99125.28;;;27.57;48.61
27840;BME280;15207;42.182;24.308;2022-09-09T13:55:57;99129.00;;;27.51;48.77
27840;BME280;15207;42.182;24.308;2022-09-09T13:58:24;99125.16;;;27.52;49.12
27840;BME280;15207;42.182;24.308;2022-09-09T14:00:52;99129.81;;;27.52;49.83
27840;BME280;15207;42.182;24.308;2022-09-09T14:03:18;99125.63;;;27.49;49.69
27840;BME280;15207;42.182;24.308;2022-09-09T14:05:44;99125.72;;;27.42;48.58
27840;BME280;15207;42.182;24.308;2022-09-09T14:08:24;99120.97;;;27.38;49.70
27840;BME280;15207;42.182;24.308;2022-09-09T14:10:51;99119.53;;;27.35;50.57
27840;BME280;15207;42.182;24.308;2022-09-09T14:13:17;99122.59;;;27.27;50.68
27840;BME280;15207;42.182;24.308;2022-09-09T14:15:43;99117.44;;;27.18;50.99
27840;BME280;15207;42.182;24.308;2022-09-09T14:18:12;99122.34;;;27.16;51.51
27840;BME280;15207;42.182;24.308;2022-09-09T14:20:39;99134.06;;;27.12;52.11
27840;BME280;15207;42.182;24.308;2022-09-09T14:23:04;99123.28;;;27.10;51.77
27840;BME280;15207;42.182;24.308;2022-09-09T14:25:30;99116.94;;;27.10;50.21
27840;BME280;15207;42.182;24.308;2022-09-09T14:27:56;99115.50;;;27.07;50.40
27840;BME280;15207;42.182;24.308;2022-09-09T14:30:22;99119.97;;;27.20;52.60
27840;BME280;15207;42.182;24.308;2022-09-09T14:32:48;99118.41;;;27.24;50.28
27840;BME280;15207;42.182;24.308;2022-09-09T14:35:13;99109.69;;;27.15;51.43
27840;BME280;15207;42.182;24.308;2022-09-09T14:37:39;99105.63;;;27.18;50.11
27840;BME280;15207;42.182;24.308;2022-09-09T14:40:05;99112.66;;;27.14;49.28
27840;BME280;15207;42.182;24.308;2022-09-09T14:42:31;99118.38;;;27.12;49.93
27840;BME280;15207;42.182;24.308;2022-09-09T14:44:57;99104.53;;;27.07;50.21
27840;BME280;15207;42.182;24.308;2022-09-09T14:47:22;99106.41;;;26.95;51.50
27840;BME280;15207;42.182;24.308;2022-09-09T14:49:48;99098.47;;;26.86;50.36
27840;BME280;15207;42.182;24.308;2022-09-09T14:52:15;99097.38;;;26.87;51.40
27840;BME280;15207;42.182;24.308;2022-09-09T14:54:41;99101.00;;;26.88;50.69
27840;BME280;15207;42.182;24.308;2022-09-09T14:57:07;99097.16;;;26.89;53.96
27840;BME280;15207;42.182;24.308;2022-09-09T14:59:32;99092.19;;;26.98;57.17
27840;BME280;15207;42.182;24.308;2022-09-09T15:01:59;99085.28;;;27.07;54.17
27840;BME280;15207;42.182;24.308;2022-09-09T15:04:29;99091.03;;;27.17;52.89
27840;BME280;15207;42.182;24.308;2022-09-09T15:06:55;99085.94;;;27.21;52.20
27840;BME280;15207;42.182;24.308;2022-09-09T15:09:20;99079.22;;;27.17;50.56